createdAt,value
2022-09-14T00:01:21.217Z,100038.16
2022-09-14T00:03:59.814Z,100025.73
2022-09-14T00:06:33.541Z,100031.27
2022-09-14T00:09:11.974Z,100033.52
2022-09-14T00:11:45.353Z,100032.20
2022-09-14T00:14:19.746Z,100036.02
2022-09-14T00:16:53.409Z,100029.65
2022-09-14T00:19:28.155Z,100031.80
2022-09-14T00:22:02.577Z,100021.96
2022-09-14T00:24:35.577Z,100030.11
2022-09-14T00:27:08.603Z,100028.77
2022-09-14T00:29:41.621Z,100006.55
2022-09-14T00:32:15.286Z,100012.92
2022-09-14T00:34:48.573Z,100014.62
2022-09-14T00:37:21.612Z,100016.11
2022-09-14T00:39:55.035Z,100020.70
2022-09-14T00:42:28.313Z,100019.60
2022-09-14T00:45:04.209Z,100022.04
2022-09-14T00:47:37.691Z,100016.66
2022-09-14T00:50:11.730Z,100018.67
2022-09-14T00:52:48.018Z,100023.72
2022-09-14T00:55:24.832Z,100017.20
2022-09-14T00:57:58.593Z,100016.09
2022-09-14T01:00:33.452Z,100023.03
2022-09-14T01:03:06.671Z,100020.13
2022-09-14T01:06:08.792Z,100004.48
2022-09-14T01:09:16.672Z,100008.65
2022-09-14T01:12:06.682Z,100008.72
2022-09-14T01:15:05.671Z,100001.99
2022-09-14T01:18:00.910Z,100001.14
2022-09-14T01:20:43.488Z,99998.42
2022-09-14T01:23:32.854Z,99996.48
2022-09-14T01:26:12.005Z,99990.81
2022-09-14T01:28:56.181Z,99990.55
2022-09-14T01:32:23.821Z,100000.47
2022-09-14T01:34:56.800Z,100005.76
2022-09-14T01:37:57.857Z,100000.30
2022-09-14T01:40:34.625Z,100001.12
2022-09-14T01:43:19.803Z,100003.64
2022-09-14T01:45:56.540Z,100006.86
2022-09-14T01:48:46.241Z,100008.23
2022-09-14T01:51:26.849Z,99997.61
2022-09-14T01:54:10.141Z,99986.20
2022-09-14T01:56:52.341Z,99981.00
2022-09-14T01:59:31.940Z,99976.84
2022-09-14T02:02:16.188Z,99977.91
2022-09-14T02:04:55.438Z,99980.33
2022-09-14T02:07:29.511Z,99974.69
2022-09-14T02:10:02.341Z,99957.20
2022-09-14T02:12:35.426Z,99958.81
2022-09-14T02:15:11.623Z,99957.67
2022-09-14T02:17:45.057Z,99957.10
2022-09-14T02:20:39.496Z,99939.16
2022-09-14T02:23:12.523Z,99940.52
2022-09-14T02:25:46.069Z,99945.38
2022-09-14T02:28:18.845Z,99948.59
2022-09-14T02:31:18.618Z,99948.45
2022-09-14T02:33:55.162Z,99946.52
2022-09-14T02:36:41.522Z,99947.23
2022-09-14T02:39:32.466Z,99943.23
2022-09-14T02:42:37.557Z,99956.27
2022-09-14T02:45:30.201Z,99972.88
2022-09-14T02:48:14.550Z,99971.52
2022-09-14T02:50:51.286Z,99970.78
2022-09-14T02:54:00.155Z,99958.19
2022-09-14T02:56:33.588Z,99957.02
2022-09-14T02:59:06.974Z,99944.59
2022-09-14T03:01:40.375Z,99956.02
2022-09-14T03:04:13.320Z,99955.95
2022-09-14T03:06:46.068Z,99960.21
2022-09-14T03:09:18.959Z,99963.90
2022-09-14T03:11:51.677Z,99967.70
2022-09-14T03:14:24.336Z,99970.95
2022-09-14T03:16:57.103Z,99974.91
2022-09-14T03:19:30.297Z,99974.52
2022-09-14T03:22:03.082Z,99969.61
2022-09-14T03:24:37.256Z,99963.33
2022-09-14T03:27:09.966Z,99961.09
2022-09-14T03:29:42.901Z,99964.38
2022-09-14T03:32:15.775Z,99969.36
2022-09-14T03:34:49.022Z,99967.84
2022-09-14T03:37:22.000Z,99961.79
2022-09-14T03:39:55.295Z,99975.19
2022-09-14T03:42:28.298Z,99974.79
2022-09-14T03:45:01.481Z,99970.52
2022-09-14T03:47:34.980Z,99971.08
2022-09-14T03:50:08.946Z,99972.73
2022-09-14T03:52:42.324Z,99974.78
2022-09-14T03:55:15.850Z,99982.02
2022-09-14T03:57:48.918Z,99974.82
2022-09-14T04:00:22.459Z,99987.58
2022-09-14T04:02:55.615Z,99975.30
2022-09-14T04:05:28.957Z,99985.36
2022-09-14T04:08:02.579Z,99996.98
2022-09-14T04:10:35.885Z,99981.64
2022-09-14T04:13:08.876Z,99976.70
2022-09-14T04:15:41.520Z,99983.79
2022-09-14T04:18:14.357Z,99972.98
2022-09-14T04:20:47.053Z,99965.58
2022-09-14T04:23:19.822Z,99975.06
2022-09-14T04:25:54.187Z,99979.30
2022-09-14T04:28:28.858Z,99980.34
2022-09-14T04:31:03.866Z,99981.75
2022-09-14T04:33:38.742Z,99984.16
2022-09-14T04:36:14.716Z,99985.81
2022-09-14T04:38:48.773Z,99970.90
2022-09-14T04:41:23.229Z,99973.08
2022-09-14T04:43:58.191Z,99983.70
2022-09-14T04:46:35.552Z,99986.60
2022-09-14T04:49:08.856Z,99984.50
2022-09-14T04:51:42.214Z,99990.41
2022-09-14T04:54:18.809Z,99997.86
2022-09-14T04:56:52.222Z,99989.65
2022-09-14T04:59:25.804Z,99978.15
2022-09-14T05:01:59.581Z,99987.16
2022-09-14T05:04:34.825Z,99999.36
2022-09-14T05:07:08.590Z,99995.42
2022-09-14T05:09:41.922Z,99994.82
2022-09-14T05:12:16.639Z,99997.56
2022-09-14T05:14:52.701Z,99998.81
2022-09-14T05:17:27.105Z,100007.73
2022-09-14T05:20:00.622Z,100003.59
2022-09-14T05:22:33.740Z,99999.27
2022-09-14T05:25:07.611Z,99995.23
2022-09-14T05:27:40.861Z,99986.15
2022-09-14T05:30:14.336Z,99983.08
2022-09-14T05:32:47.952Z,99983.98
2022-09-14T05:35:21.280Z,99976.66
2022-09-14T05:37:54.726Z,99963.80
2022-09-14T05:40:32.614Z,99979.20
2022-09-14T05:43:06.114Z,99979.38
2022-09-14T05:45:42.820Z,99982.73
2022-09-14T05:48:16.273Z,99986.88
2022-09-14T05:50:50.435Z,99992.02
2022-09-14T05:53:23.934Z,99984.34
2022-09-14T05:56:08.017Z,99982.65
2022-09-14T05:58:43.181Z,99998.92
2022-09-14T06:01:25.035Z,100003.03
2022-09-14T06:04:01.177Z,100009.63
2022-09-14T06:06:35.508Z,100013.34
2022-09-14T06:09:09.138Z,100016.43
2022-09-14T06:11:42.497Z,100016.62
2022-09-14T06:14:21.047Z,100014.23
2022-09-14T06:16:55.501Z,100015.86
2022-09-14T06:19:31.356Z,100014.66
2022-09-14T06:22:07.200Z,100013.90
2022-09-14T06:24:44.108Z,100012.29
2022-09-14T06:27:18.839Z,100007.48
2022-09-14T06:29:54.584Z,100015.48
2022-09-14T06:32:27.938Z,100011.59
2022-09-14T06:35:01.515Z,100011.31
2022-09-14T06:37:34.648Z,100013.06
2022-09-14T06:40:09.273Z,100020.59
2022-09-14T06:42:43.272Z,100023.10
2022-09-14T06:45:16.923Z,100025.34
2022-09-14T06:47:50.585Z,100022.87
2022-09-14T06:50:23.369Z,100021.98
2022-09-14T06:52:56.672Z,100027.70
2022-09-14T06:55:30.637Z,100025.66
2022-09-14T06:58:04.298Z,100024.73
2022-09-14T07:00:37.753Z,100013.09
2022-09-14T07:03:11.840Z,100005.89
2022-09-14T07:05:45.298Z,100002.65
2022-09-14T07:08:18.791Z,100010.36
2022-09-14T07:11:02.067Z,100016.54
2022-09-14T07:13:35.855Z,100022.48
2022-09-14T07:16:09.632Z,100014.98
2022-09-14T07:18:45.465Z,100009.92
2022-09-14T07:21:23.185Z,100015.34
2022-09-14T07:23:56.704Z,100023.79
2022-09-14T07:26:35.623Z,100023.27
2022-09-14T07:29:09.979Z,100013.11
2022-09-14T07:31:51.582Z,100012.11
2022-09-14T07:34:25.989Z,100014.27
2022-09-14T07:36:59.493Z,100011.13
2022-09-14T07:39:32.901Z,100006.23
2022-09-14T07:42:07.484Z,100000.52
2022-09-14T07:44:40.943Z,100002.71
2022-09-14T07:47:14.261Z,99999.09
2022-09-14T07:49:47.277Z,99992.49
2022-09-14T07:52:20.435Z,99988.95
2022-09-14T07:54:54.233Z,99980.88
2022-09-14T07:57:52.187Z,99968.23
2022-09-14T08:00:23.662Z,99965.61
2022-09-14T08:02:58.619Z,99966.91
2022-09-14T08:05:31.860Z,99963.76
2022-09-14T08:08:08.677Z,99972.15
2022-09-14T08:10:41.970Z,99969.54
2022-09-14T08:13:15.588Z,99960.73
2022-09-14T08:15:48.760Z,99949.13
2022-09-14T08:18:22.189Z,99962.91
2022-09-14T08:20:55.430Z,99953.36
2022-09-14T08:23:28.881Z,99950.81
2022-09-14T08:26:22.969Z,99956.75
2022-09-14T08:28:58.075Z,99946.55
2022-09-14T08:31:31.734Z,99946.53
2022-09-14T08:34:06.105Z,99941.17
2022-09-14T08:36:43.557Z,99939.98
2022-09-14T08:39:17.962Z,99938.09
2022-09-14T08:42:02.458Z,99931.23
2022-09-14T08:44:45.800Z,99935.23
2022-09-14T08:47:42.729Z,99925.56
2022-09-14T08:50:23.474Z,99916.41
2022-09-14T08:53:01.849Z,99920.71
2022-09-14T08:55:53.560Z,99916.46
2022-09-14T08:58:48.439Z,99922.60
2022-09-14T09:01:43.799Z,99919.94
2022-09-14T09:05:05.619Z,99913.78
2022-09-14T09:08:00.883Z,99911.46
2022-09-14T09:10:38.208Z,99911.44
2022-09-14T09:13:19.505Z,99903.21
2022-09-14T09:16:01.098Z,99909.66
2022-09-14T09:18:48.453Z,99905.38
2022-09-14T09:21:24.369Z,99905.14
2022-09-14T09:24:31.075Z,99903.33
2022-09-14T09:27:13.211Z,99906.27
2022-09-14T09:29:47.490Z,99905.63
2022-09-14T09:32:28.325Z,99902.40
2022-09-14T09:35:27.751Z,99892.72
2022-09-14T09:38:11.257Z,99896.59
2022-09-14T09:40:49.200Z,99886.15
2022-09-14T09:43:45.392Z,99894.50
2022-09-14T09:46:20.015Z,99889.58
2022-09-14T09:48:53.922Z,99886.14
2022-09-14T09:51:32.769Z,99884.41
2022-09-14T09:54:17.492Z,99871.17
2022-09-14T09:57:01.485Z,99874.65
2022-09-14T09:59:38.605Z,99870.64
2022-09-14T10:02:27.173Z,99872.04
2022-09-14T10:05:16.863Z,99866.23
2022-09-14T10:08:12.903Z,99871.81
2022-09-14T10:10:48.299Z,99869.90
2022-09-14T10:13:49.009Z,99865.95
2022-09-14T10:16:24.496Z,99866.96
2022-09-14T10:19:00.275Z,99865.75
2022-09-14T10:21:37.425Z,99857.76
2022-09-14T10:24:21.834Z,99864.80
2022-09-14T10:26:55.758Z,99853.63
2022-09-14T10:29:42.211Z,99855.20
2022-09-14T10:32:27.029Z,99857.25
2022-09-14T10:35:04.349Z,99859.39
2022-09-14T10:37:57.389Z,99856.15
2022-09-14T10:40:46.481Z,99850.29
2022-09-14T10:43:43.722Z,99841.13
2022-09-14T10:46:27.376Z,99847.45
2022-09-14T10:49:34.065Z,99842.86
2022-09-14T10:52:42.006Z,99830.90
2022-09-14T10:55:51.472Z,99820.73
2022-09-14T10:58:43.878Z,99824.55
2022-09-14T11:01:25.821Z,99813.28
2022-09-14T11:04:03.933Z,99827.67
2022-09-14T11:07:10.787Z,99820.00
2022-09-14T11:10:05.196Z,99827.96
2022-09-14T11:12:48.536Z,99825.54
2022-09-14T11:15:33.290Z,99834.52
2022-09-14T11:18:17.470Z,99838.38
2022-09-14T11:20:54.591Z,99838.36
2022-09-14T11:23:31.138Z,99840.33
2022-09-14T11:26:32.948Z,99842.06
2022-09-14T11:29:32.062Z,99831.95
2022-09-14T11:32:21.358Z,99833.72
2022-09-14T11:35:14.603Z,99830.27
2022-09-14T11:37:58.202Z,99826.16
2022-09-14T11:41:00.859Z,99824.70
2022-09-14T11:43:46.500Z,99825.63
2022-09-14T11:46:38.368Z,99824.95
2022-09-14T11:49:40.422Z,99820.89
2022-09-14T11:52:33.169Z,99816.23
2022-09-14T11:55:11.315Z,99808.92
2022-09-14T11:57:48.462Z,99804.30
2022-09-14T12:00:28.167Z,99800.54
2022-09-14T12:03:22.169Z,99792.43
2022-09-14T12:05:55.634Z,99799.23
2022-09-14T12:08:34.974Z,99794.20
2022-09-14T12:11:34.863Z,99787.94
2022-09-14T12:14:30.377Z,99789.54
2022-09-14T12:17:39.269Z,99786.48
2022-09-14T12:20:33.722Z,99780.77
2022-09-14T12:23:23.584Z,99772.14
2022-09-14T12:26:21.819Z,99773.11
2022-09-14T12:28:58.157Z,99755.30
2022-09-14T12:32:11.997Z,99758.32
2022-09-14T12:34:45.091Z,99757.66
2022-09-14T12:37:34.960Z,99759.48
2022-09-14T12:40:32.082Z,99766.67
2022-09-14T12:43:38.098Z,99772.98
2022-09-14T12:46:26.081Z,99753.28
2022-09-14T12:49:07.691Z,99766.22
2022-09-14T12:51:54.159Z,99761.07
2022-09-14T12:54:45.221Z,99760.14
2022-09-14T12:57:35.599Z,99753.52
2022-09-14T13:00:17.484Z,99757.61
2022-09-14T13:03:04.734Z,99748.70
2022-09-14T13:05:45.973Z,99740.67
2022-09-14T13:08:26.877Z,99736.23
2022-09-14T13:11:00.474Z,99745.43
2022-09-14T13:13:37.663Z,99735.77
2022-09-14T13:16:17.427Z,99745.44
2022-09-14T13:18:50.885Z,99740.29
2022-09-14T13:21:26.097Z,99729.83
2022-09-14T13:23:59.392Z,99727.67
2022-09-14T13:26:35.790Z,99729.79
2022-09-14T13:29:10.995Z,99726.41
2022-09-14T13:31:46.436Z,99720.67
2022-09-14T13:34:29.882Z,99719.41
2022-09-14T13:37:03.812Z,99718.89
2022-09-14T13:39:42.597Z,99704.61
2022-09-14T13:42:16.567Z,99724.95
2022-09-14T13:44:52.416Z,99726.59
2022-09-14T13:47:28.894Z,99729.19
2022-09-14T13:50:02.377Z,99727.98
2022-09-14T13:53:00.509Z,99727.23
2022-09-14T13:55:37.493Z,99729.25
2022-09-14T13:58:15.525Z,99726.48
2022-09-14T14:01:07.328Z,99723.22
2022-09-14T14:03:50.146Z,99720.36
2022-09-14T14:06:35.558Z,99718.51
2022-09-14T14:09:11.961Z,99713.29
2022-09-14T14:11:57.308Z,99704.88
2022-09-14T14:14:32.152Z,99703.33
2022-09-14T14:17:27.321Z,99702.45
2022-09-14T14:20:22.414Z,99702.34
2022-09-14T14:23:24.862Z,99696.56
2022-09-14T14:26:09.359Z,99691.83
2022-09-14T14:28:44.745Z,99697.77
2022-09-14T14:31:21.779Z,99708.84
2022-09-14T14:33:56.750Z,99700.08
2022-09-14T14:36:31.483Z,99699.36
2022-09-14T14:39:05.299Z,99697.83
2022-09-14T14:41:39.568Z,99698.65
2022-09-14T14:44:28.873Z,99707.70
2022-09-14T14:47:02.783Z,99713.01
2022-09-14T14:49:37.121Z,99712.27
2022-09-14T14:52:11.942Z,99710.73
2022-09-14T14:54:45.654Z,99697.67
2022-09-14T15:00:14.885Z,99710.80
2022-09-14T15:02:50.145Z,99707.30
2022-09-14T15:05:25.793Z,99710.21
2022-09-14T15:08:00.023Z,99710.38
2022-09-14T15:10:33.805Z,99709.77
2022-09-14T15:13:08.181Z,99706.29
2022-09-14T15:15:46.939Z,99687.96
2022-09-14T15:18:20.624Z,99703.88
2022-09-14T15:20:55.081Z,99708.52
2022-09-14T15:23:29.570Z,99707.89
2022-09-14T15:26:03.905Z,99695.83
2022-09-14T15:28:39.395Z,99686.93
2022-09-14T15:31:13.916Z,99689.20
2022-09-14T15:33:47.839Z,99686.14
2022-09-14T15:36:39.441Z,99688.78
2022-09-14T15:39:16.181Z,99688.17
2022-09-14T15:44:40.318Z,99682.21
2022-09-14T15:47:18.284Z,99685.31
2022-09-14T15:49:56.058Z,99684.80
2022-09-14T15:52:30.898Z,99681.00
2022-09-14T15:55:07.200Z,99661.66
2022-09-14T15:57:43.616Z,99666.83
2022-09-14T16:00:17.827Z,99661.89
2022-09-14T16:02:58.745Z,99660.90
2022-09-14T16:05:35.455Z,99668.24
2022-09-14T16:08:09.024Z,99668.61
2022-09-14T16:10:43.446Z,99670.46
2022-09-14T16:13:17.231Z,99668.73
2022-09-14T16:16:16.483Z,99675.28
2022-09-14T16:18:52.710Z,99679.63
2022-09-14T16:21:29.336Z,99679.89
2022-09-14T16:24:04.347Z,99675.37
2022-09-14T16:26:41.166Z,99661.83
2022-09-14T16:29:21.426Z,99664.20
2022-09-14T16:31:55.562Z,99665.95
2022-09-14T16:34:32.706Z,99674.17
2022-09-14T16:37:06.359Z,99672.97
2022-09-14T16:39:39.991Z,99669.52
2022-09-14T16:42:13.752Z,99666.37
2022-09-14T16:44:58.097Z,99667.38
2022-09-14T16:47:34.283Z,99659.16
2022-09-14T16:50:12.424Z,99668.67
2022-09-14T16:52:50.494Z,99657.59
2022-09-14T16:55:25.808Z,99670.09
2022-09-14T16:58:01.715Z,99668.86
2022-09-14T17:00:50.911Z,99665.27
2022-09-14T17:03:29.787Z,99668.48
2022-09-14T17:06:11.076Z,99668.41
2022-09-14T17:08:48.224Z,99666.05
2022-09-14T17:11:26.375Z,99656.59
2022-09-14T17:14:00.324Z,99658.63
2022-09-14T17:16:34.233Z,99653.54
2022-09-14T17:19:08.157Z,99669.61
2022-09-14T17:21:54.757Z,99661.12
2022-09-14T17:27:26.811Z,99666.34
2022-09-14T17:30:00.550Z,99651.95
2022-09-14T17:32:37.471Z,99663.11
2022-09-14T17:35:11.635Z,99665.30
2022-09-14T17:37:44.866Z,99663.05
2022-09-14T17:40:20.693Z,99652.22
2022-09-14T17:42:54.870Z,99647.91
2022-09-14T17:45:28.537Z,99649.23
2022-09-14T17:48:02.903Z,99641.75
2022-09-14T17:50:42.280Z,99635.84
2022-09-14T17:53:18.609Z,99641.34
2022-09-14T17:55:51.959Z,99636.80
2022-09-14T17:58:24.780Z,99641.52
2022-09-14T18:01:21.197Z,99639.45
2022-09-14T18:03:57.065Z,99632.63
2022-09-14T18:06:52.589Z,99629.20
2022-09-14T18:09:28.134Z,99643.22
2022-09-14T18:12:02.183Z,99641.09
2022-09-14T18:14:40.906Z,99645.42
2022-09-14T18:17:15.628Z,99643.54
2022-09-14T18:20:04.375Z,99649.15
2022-09-14T18:22:39.091Z,99642.64
2022-09-14T18:25:12.310Z,99653.05
2022-09-14T18:27:45.326Z,99654.31
2022-09-14T18:30:18.314Z,99650.65
2022-09-14T18:32:52.483Z,99659.74
2022-09-14T18:35:32.257Z,99666.64
2022-09-14T18:38:09.207Z,99666.25
2022-09-14T18:40:43.044Z,99666.84
2022-09-14T18:43:18.811Z,99679.21
2022-09-14T18:45:57.141Z,99677.36
2022-09-14T18:48:31.394Z,99662.91
2022-09-14T18:51:07.405Z,99659.98
2022-09-14T18:53:40.575Z,99646.86
2022-09-14T18:56:16.682Z,99663.19
2022-09-14T18:58:51.934Z,99676.06
2022-09-14T19:01:25.932Z,99678.86
2022-09-14T19:03:59.528Z,99675.11
2022-09-14T19:06:32.955Z,99676.08
2022-09-14T19:09:07.319Z,99678.47
2022-09-14T19:11:40.338Z,99678.43
2022-09-14T19:14:15.924Z,99680.70
2022-09-14T19:16:54.400Z,99667.41
2022-09-14T19:19:28.334Z,99668.55
2022-09-14T19:22:02.391Z,99669.77
2022-09-14T19:24:36.104Z,99669.13
2022-09-14T19:27:09.500Z,99670.10
2022-09-14T19:29:43.325Z,99658.94
2022-09-14T19:32:19.478Z,99653.19
2022-09-14T19:34:54.147Z,99660.41
2022-09-14T19:37:27.489Z,99665.80
2022-09-14T19:40:01.150Z,99667.89
2022-09-14T19:42:35.082Z,99656.06
2022-09-14T19:45:10.744Z,99660.98
2022-09-14T19:47:44.375Z,99653.89
2022-09-14T19:50:23.105Z,99654.15
2022-09-14T19:52:56.177Z,99658.83
2022-09-14T19:55:30.549Z,99648.20
2022-09-14T19:58:04.440Z,99639.79
2022-09-14T20:01:01.593Z,99647.94
2022-09-14T20:03:37.514Z,99636.48
2022-09-14T20:06:23.155Z,99645.95
2022-09-14T20:14:48.627Z,99651.90
2022-09-14T20:17:22.954Z,99654.00
2022-09-14T20:19:55.950Z,99656.88
2022-09-14T20:22:39.200Z,99653.20
2022-09-14T20:25:14.552Z,99661.92
2022-09-14T20:27:50.660Z,99653.88
2022-09-14T20:30:24.185Z,99657.55
2022-09-14T20:32:57.753Z,99647.67
2022-09-14T20:35:31.096Z,99635.42
2022-09-14T20:38:05.449Z,99648.76
2022-09-14T20:40:39.353Z,99637.84
2022-09-14T20:43:12.997Z,99630.49
2022-09-14T20:45:47.354Z,99637.84
2022-09-14T20:48:25.470Z,99635.26
2022-09-14T20:50:59.829Z,99626.51
2022-09-14T20:56:32.367Z,99610.04
2022-09-14T20:59:10.412Z,99614.77
2022-09-14T21:01:45.497Z,99618.94
2022-09-14T21:04:21.582Z,99608.75
2022-09-14T21:06:57.791Z,99619.58
2022-09-14T21:09:40.150Z,99616.69
2022-09-14T21:12:14.861Z,99611.13
2022-09-14T21:14:48.669Z,99622.91
2022-09-14T21:17:22.605Z,99624.42
2022-09-14T21:19:56.143Z,99627.93
2022-09-14T21:22:29.010Z,99615.34
2022-09-14T21:25:02.492Z,99622.77
2022-09-14T21:27:35.781Z,99613.04
2022-09-14T21:30:10.300Z,99614.48
2022-09-14T21:32:48.402Z,99615.75
2022-09-14T21:35:23.575Z,99606.16
2022-09-14T21:37:57.881Z,99608.36
2022-09-14T21:40:34.495Z,99603.27
2022-09-14T21:43:07.943Z,99595.06
2022-09-14T21:45:47.623Z,99584.04
2022-09-14T21:48:21.285Z,99583.59
2022-09-14T21:51:05.902Z,99583.54
2022-09-14T21:53:40.168Z,99597.69
2022-09-14T21:56:15.186Z,99594.11
2022-09-14T21:59:20.602Z,99579.06
2022-09-14T22:01:59.172Z,99581.46
2022-09-14T22:04:48.335Z,99586.81
2022-09-14T22:07:22.820Z,99586.52
2022-09-14T22:09:56.533Z,99590.39
2022-09-14T22:12:31.957Z,99591.20
2022-09-14T22:15:05.720Z,99596.96
2022-09-14T22:17:39.466Z,99603.17
2022-09-14T22:20:19.757Z,99598.31
2022-09-14T22:22:57.341Z,99579.02
2022-09-14T22:25:33.143Z,99588.52
2022-09-14T22:28:06.916Z,99592.16
2022-09-14T22:30:49.085Z,99591.28
2022-09-14T22:33:24.256Z,99587.64
2022-09-14T22:36:00.461Z,99583.38
2022-09-14T22:38:47.414Z,99565.87
2022-09-14T22:41:23.520Z,99567.91
2022-09-14T22:43:57.850Z,99573.50
2022-09-14T22:46:33.663Z,99575.58
2022-09-14T22:49:07.367Z,99578.15
2022-09-14T22:51:42.502Z,99560.67
2022-09-14T22:54:18.534Z,99560.67
2022-09-14T22:56:53.841Z,99553.48
2022-09-14T22:59:27.414Z,99538.92
2022-09-14T23:02:03.659Z,99527.07
2022-09-14T23:04:37.132Z,99525.76
2022-09-14T23:07:10.559Z,99508.24
2022-09-14T23:09:44.021Z,99525.27
2022-09-14T23:12:16.848Z,99520.77
2022-09-14T23:17:38.067Z,99512.53
2022-09-14T23:20:13.480Z,99512.84
2022-09-14T23:22:46.664Z,99505.43
2022-09-14T23:25:21.198Z,99495.20
2022-09-14T23:27:58.014Z,99504.48
2022-09-14T23:30:33.543Z,99501.74
2022-09-14T23:33:30.245Z,99512.19
2022-09-14T23:36:04.388Z,99518.94
2022-09-14T23:38:38.879Z,99519.36
2022-09-14T23:41:12.382Z,99509.77
2022-09-14T23:43:45.852Z,99512.80
2022-09-14T23:46:20.956Z,99517.76
2022-09-14T23:48:55.149Z,99520.36
2022-09-14T23:51:29.009Z,99516.55
2022-09-14T23:54:03.060Z,99527.69
2022-09-14T23:56:39.478Z,99525.23
2022-09-14T23:59:18.413Z,99516.14
